sensor_id;sensor_type;location;lat;lon;timestamp;P1;durP1;ratioP1;P2;durP2;ratioP2
42000;SDS011;27689;48.390;10.856;2023-02-11T00:00:22;44.42;;;27.52;;
42000;SDS011;27689;48.390;10.856;2023-02-11T00:03:06;50.00;;;27.23;;
42000;SDS011;27689;48.390;10.856;2023-02-11T00:08:44;44.20;;;25.17;;
42000;SDS011;27689;48.390;10.856;2023-02-11T00:11:28;45.92;;;26.33;;
42000;SDS011;27689;48.390;10.856;2023-02-11T00:14:13;49.17;;;26.98;;
42000;SDS011;27689;48.390;10.856;2023-02-11T00:16:57;41.28;;;24.40;;
42000;SDS011;27689;48.390;10.856;2023-02-11T00:19:41;49.83;;;28.60;;
42000;SDS011;27689;48.390;10.856;2023-02-11T00:25:10;44.20;;;24.48;;
42000;SDS011;27689;48.390;10.856;2023-02-11T00:27:54;42.42;;;24.75;;
42000;SDS011;27689;48.390;10.856;2023-02-11T00:30:38;44.83;;;26.83;;
42000;SDS011;27689;48.390;10.856;2023-02-11T00:33:22;45.40;;;25.98;;
42000;SDS011;27689;48.390;10.856;2023-02-11T00:36:08;41.45;;;24.70;;
42000;SDS011;27689;48.390;10.856;2023-02-11T00:38:56;44.55;;;25.08;;
42000;SDS011;27689;48.390;10.856;2023-02-11T00:41:41;39.67;;;23.80;;
42000;SDS011;27689;48.390;10.856;2023-02-11T00:44:24;41.47;;;24.20;;
42000;SDS011;27689;48.390;10.856;2023-02-11T00:47:08;45.55;;;25.65;;
42000;SDS011;27689;48.390;10.856;2023-02-11T00:49:52;42.58;;;23.90;;
42000;SDS011;27689;48.390;10.856;2023-02-11T00:52:36;41.58;;;23.20;;
42000;SDS011;27689;48.390;10.856;2023-02-11T00:55:20;37.55;;;22.73;;
42000;SDS011;27689;48.390;10.856;2023-02-11T00:58:04;40.30;;;23.60;;
42000;SDS011;27689;48.390;10.856;2023-02-11T01:00:48;39.63;;;24.02;;
42000;SDS011;27689;48.390;10.856;2023-02-11T01:03:32;40.20;;;23.15;;
42000;SDS011;27689;48.390;10.856;2023-02-11T01:09:01;40.92;;;23.33;;
42000;SDS011;27689;48.390;10.856;2023-02-11T01:11:45;41.50;;;23.67;;
42000;SDS011;27689;48.390;10.856;2023-02-11T01:14:30;41.63;;;23.75;;
42000;SDS011;27689;48.390;10.856;2023-02-11T01:17:14;41.15;;;24.20;;
42000;SDS011;27689;48.390;10.856;2023-02-11T01:20:00;39.67;;;23.63;;
42000;SDS011;27689;48.390;10.856;2023-02-11T01:22:50;39.42;;;24.80;;
42000;SDS011;27689;48.390;10.856;2023-02-11T01:25:34;37.05;;;24.58;;
42000;SDS011;27689;48.390;10.856;2023-02-11T01:28:25;45.35;;;27.23;;
42000;SDS011;27689;48.390;10.856;2023-02-11T01:31:10;44.88;;;25.92;;
42000;SDS011;27689;48.390;10.856;2023-02-11T01:33:54;41.20;;;24.35;;
42000;SDS011;27689;48.390;10.856;2023-02-11T01:36:39;36.22;;;23.10;;
42000;SDS011;27689;48.390;10.856;2023-02-11T01:42:08;34.40;;;21.60;;
42000;SDS011;27689;48.390;10.856;2023-02-11T01:44:58;41.03;;;24.67;;
42000;SDS011;27689;48.390;10.856;2023-02-11T01:47:44;39.38;;;23.88;;
42000;SDS011;27689;48.390;10.856;2023-02-11T01:50:28;44.75;;;26.27;;
42000;SDS011;27689;48.390;10.856;2023-02-11T01:53:12;30.02;;;17.98;;
42000;SDS011;27689;48.390;10.856;2023-02-11T01:56:16;44.47;;;25.33;;
42000;SDS011;27689;48.390;10.856;2023-02-11T01:59:23;41.20;;;25.70;;
42000;SDS011;27689;48.390;10.856;2023-02-11T02:02:15;36.38;;;22.65;;
42000;SDS011;27689;48.390;10.856;2023-02-11T02:11:07;41.97;;;23.90;;
42000;SDS011;27689;48.390;10.856;2023-02-11T02:13:51;44.05;;;27.05;;
42000;SDS011;27689;48.390;10.856;2023-02-11T02:16:35;47.00;;;26.85;;
42000;SDS011;27689;48.390;10.856;2023-02-11T02:19:45;40.58;;;25.25;;
42000;SDS011;27689;48.390;10.856;2023-02-11T02:35:43;38.10;;;22.95;;
42000;SDS011;27689;48.390;10.856;2023-02-11T02:41:35;42.13;;;25.75;;
42000;SDS011;27689;48.390;10.856;2023-02-11T02:44:21;42.47;;;24.80;;
42000;SDS011;27689;48.390;10.856;2023-02-11T02:49:49;44.58;;;25.88;;
42000;SDS011;27689;48.390;10.856;2023-02-11T02:52:34;50.53;;;28.40;;
42000;SDS011;27689;48.390;10.856;2023-02-11T03:04:32;41.25;;;24.92;;
42000;SDS011;27689;48.390;10.856;2023-02-11T03:07:47;38.28;;;24.67;;
42000;SDS011;27689;48.390;10.856;2023-02-11T03:10:43;46.28;;;27.48;;
42000;SDS011;27689;48.390;10.856;2023-02-11T03:13:30;50.10;;;28.40;;
42000;SDS011;27689;48.390;10.856;2023-02-11T03:16:22;49.08;;;27.63;;
42000;SDS011;27689;48.390;10.856;2023-02-11T03:19:10;48.55;;;28.42;;
42000;SDS011;27689;48.390;10.856;2023-02-11T03:21:58;46.63;;;26.50;;
42000;SDS011;27689;48.390;10.856;2023-02-11T03:24:43;44.58;;;27.38;;
42000;SDS011;27689;48.390;10.856;2023-02-11T03:27:28;51.40;;;29.02;;
42000;SDS011;27689;48.390;10.856;2023-02-11T03:30:32;46.92;;;27.60;;
42000;SDS011;27689;48.390;10.856;2023-02-11T03:33:25;48.58;;;29.50;;
42000;SDS011;27689;48.390;10.856;2023-02-11T03:36:16;49.85;;;28.95;;
42000;SDS011;27689;48.390;10.856;2023-02-11T03:39:07;47.38;;;28.27;;
42000;SDS011;27689;48.390;10.856;2023-02-11T03:41:54;48.95;;;28.85;;
42000;SDS011;27689;48.390;10.856;2023-02-11T03:44:51;45.63;;;26.77;;
42000;SDS011;27689;48.390;10.856;2023-02-11T03:47:42;43.47;;;25.38;;
42000;SDS011;27689;48.390;10.856;2023-02-11T03:50:31;44.35;;;26.17;;
42000;SDS011;27689;48.390;10.856;2023-02-11T03:53:16;49.08;;;26.40;;
42000;SDS011;27689;48.390;10.856;2023-02-11T03:56:04;45.08;;;25.67;;
42000;SDS011;27689;48.390;10.856;2023-02-11T03:58:51;41.35;;;25.10;;
42000;SDS011;27689;48.390;10.856;2023-02-11T04:01:35;41.60;;;24.25;;
42000;SDS011;27689;48.390;10.856;2023-02-11T04:04:19;41.28;;;26.40;;
42000;SDS011;27689;48.390;10.856;2023-02-11T04:07:03;37.92;;;23.92;;
42000;SDS011;27689;48.390;10.856;2023-02-11T04:09:47;39.78;;;23.95;;
42000;SDS011;27689;48.390;10.856;2023-02-11T04:12:32;43.33;;;26.70;;
42000;SDS011;27689;48.390;10.856;2023-02-11T04:15:16;31.10;;;18.23;;
42000;SDS011;27689;48.390;10.856;2023-02-11T04:18:00;40.35;;;24.80;;
42000;SDS011;27689;48.390;10.856;2023-02-11T04:20:45;40.88;;;23.65;;
42000;SDS011;27689;48.390;10.856;2023-02-11T04:23:30;38.22;;;23.35;;
42000;SDS011;27689;48.390;10.856;2023-02-11T04:26:14;43.72;;;27.52;;
42000;SDS011;27689;48.390;10.856;2023-02-11T04:28:58;38.75;;;21.10;;
42000;SDS011;27689;48.390;10.856;2023-02-11T04:31:42;53.65;;;28.83;;
42000;SDS011;27689;48.390;10.856;2023-02-11T04:34:26;53.00;;;29.33;;
42000;SDS011;27689;48.390;10.856;2023-02-11T04:37:10;51.65;;;30.48;;
42000;SDS011;27689;48.390;10.856;2023-02-11T04:39:54;43.75;;;25.67;;
42000;SDS011;27689;48.390;10.856;2023-02-11T04:42:38;43.20;;;26.50;;
42000;SDS011;27689;48.390;10.856;2023-02-11T04:45:22;42.75;;;26.30;;
42000;SDS011;27689;48.390;10.856;2023-02-11T04:48:05;51.22;;;29.60;;
42000;SDS011;27689;48.390;10.856;2023-02-11T04:50:49;47.00;;;28.08;;
42000;SDS011;27689;48.390;10.856;2023-02-11T04:53:33;41.88;;;26.65;;
42000;SDS011;27689;48.390;10.856;2023-02-11T04:56:17;50.10;;;27.00;;
42000;SDS011;27689;48.390;10.856;2023-02-11T04:59:01;38.55;;;24.90;;
42000;SDS011;27689;48.390;10.856;2023-02-11T05:01:46;39.95;;;24.00;;
42000;SDS011;27689;48.390;10.856;2023-02-11T05:04:30;44.45;;;26.35;;
42000;SDS011;27689;48.390;10.856;2023-02-11T05:07:14;41.40;;;25.55;;
42000;SDS011;27689;48.390;10.856;2023-02-11T05:09:58;39.80;;;25.40;;
42000;SDS011;27689;48.390;10.856;2023-02-11T05:12:42;39.30;;;25.25;;
42000;SDS011;27689;48.390;10.856;2023-02-11T05:15:26;37.42;;;24.27;;
42000;SDS011;27689;48.390;10.856;2023-02-11T05:18:11;44.95;;;26.10;;
42000;SDS011;27689;48.390;10.856;2023-02-11T05:20:55;43.28;;;27.38;;
42000;SDS011;27689;48.390;10.856;2023-02-11T05:23:39;43.70;;;26.50;;
42000;SDS011;27689;48.390;10.856;2023-02-11T05:26:23;44.42;;;27.70;;
42000;SDS011;27689;48.390;10.856;2023-02-11T05:29:07;43.28;;;27.67;;
42000;SDS011;27689;48.390;10.856;2023-02-11T05:31:51;43.95;;;28.13;;
42000;SDS011;27689;48.390;10.856;2023-02-11T05:34:35;40.67;;;25.92;;
42000;SDS011;27689;48.390;10.856;2023-02-11T05:37:19;48.17;;;28.27;;
42000;SDS011;27689;48.390;10.856;2023-02-11T05:40:03;42.67;;;28.38;;
42000;SDS011;27689;48.390;10.856;2023-02-11T05:45:31;52.92;;;27.17;;
42000;SDS011;27689;48.390;10.856;2023-02-11T05:48:16;44.10;;;26.85;;
42000;SDS011;27689;48.390;10.856;2023-02-11T05:53:44;44.15;;;25.83;;
42000;SDS011;27689;48.390;10.856;2023-02-11T05:56:28;45.40;;;26.10;;
42000;SDS011;27689;48.390;10.856;2023-02-11T05:59:13;51.35;;;28.40;;
42000;SDS011;27689;48.390;10.856;2023-02-11T06:01:57;42.10;;;24.63;;
42000;SDS011;27689;48.390;10.856;2023-02-11T06:04:41;40.53;;;25.13;;
42000;SDS011;27689;48.390;10.856;2023-02-11T06:07:27;38.05;;;24.08;;
42000;SDS011;27689;48.390;10.856;2023-02-11T06:10:11;46.80;;;28.15;;
42000;SDS011;27689;48.390;10.856;2023-02-11T06:15:39;46.95;;;25.45;;
42000;SDS011;27689;48.390;10.856;2023-02-11T06:18:23;40.50;;;24.48;;
42000;SDS011;27689;48.390;10.856;2023-02-11T06:21:08;45.97;;;27.65;;
42000;SDS011;27689;48.390;10.856;2023-02-11T06:23:53;45.80;;;27.35;;
42000;SDS011;27689;48.390;10.856;2023-02-11T06:26:37;43.42;;;26.58;;
42000;SDS011;27689;48.390;10.856;2023-02-11T06:29:21;48.25;;;27.95;;
42000;SDS011;27689;48.390;10.856;2023-02-11T06:32:06;32.88;;;19.40;;
42000;SDS011;27689;48.390;10.856;2023-02-11T06:34:50;45.28;;;26.10;;
42000;SDS011;27689;48.390;10.856;2023-02-11T06:37:34;38.90;;;24.70;;
42000;SDS011;27689;48.390;10.856;2023-02-11T06:40:18;38.38;;;23.40;;
42000;SDS011;27689;48.390;10.856;2023-02-11T06:43:02;40.40;;;24.88;;
42000;SDS011;27689;48.390;10.856;2023-02-11T06:45:51;38.00;;;23.77;;
42000;SDS011;27689;48.390;10.856;2023-02-11T06:48:37;37.72;;;24.25;;
42000;SDS011;27689;48.390;10.856;2023-02-11T06:51:21;40.65;;;25.30;;
42000;SDS011;27689;48.390;10.856;2023-02-11T06:54:06;40.90;;;24.95;;
42000;SDS011;27689;48.390;10.856;2023-02-11T06:56:50;38.15;;;24.42;;
42000;SDS011;27689;48.390;10.856;2023-02-11T06:59:34;42.70;;;26.13;;
42000;SDS011;27689;48.390;10.856;2023-02-11T07:02:18;43.20;;;24.77;;
42000;SDS011;27689;48.390;10.856;2023-02-11T07:05:04;38.55;;;24.80;;
42000;SDS011;27689;48.390;10.856;2023-02-11T07:07:49;47.08;;;27.27;;
42000;SDS011;27689;48.390;10.856;2023-02-11T07:10:33;42.47;;;26.23;;
42000;SDS011;27689;48.390;10.856;2023-02-11T07:13:17;46.20;;;26.20;;
42000;SDS011;27689;48.390;10.856;2023-02-11T07:19:11;37.55;;;23.45;;
42000;SDS011;27689;48.390;10.856;2023-02-11T07:21:55;45.40;;;26.00;;
42000;SDS011;27689;48.390;10.856;2023-02-11T07:24:40;41.53;;;25.75;;
42000;SDS011;27689;48.390;10.856;2023-02-11T07:27:24;41.95;;;24.33;;
42000;SDS011;27689;48.390;10.856;2023-02-11T07:30:08;41.15;;;24.58;;
42000;SDS011;27689;48.390;10.856;2023-02-11T07:32:54;38.55;;;22.60;;
42000;SDS011;27689;48.390;10.856;2023-02-11T07:35:39;37.42;;;23.23;;
42000;SDS011;27689;48.390;10.856;2023-02-11T07:38:23;41.17;;;24.35;;
42000;SDS011;27689;48.390;10.856;2023-02-11T07:41:08;35.90;;;22.75;;
42000;SDS011;27689;48.390;10.856;2023-02-11T07:43:54;33.85;;;22.00;;
42000;SDS011;27689;48.390;10.856;2023-02-11T07:46:41;36.20;;;22.50;;
42000;SDS011;27689;48.390;10.856;2023-02-11T07:49:27;34.25;;;21.67;;
42000;SDS011;27689;48.390;10.856;2023-02-11T07:54:56;37.03;;;22.30;;
42000;SDS011;27689;48.390;10.856;2023-02-11T07:57:40;38.30;;;23.02;;
42000;SDS011;27689;48.390;10.856;2023-02-11T08:00:24;37.97;;;23.05;;
42000;SDS011;27689;48.390;10.856;2023-02-11T08:03:07;37.65;;;22.48;;
42000;SDS011;27689;48.390;10.856;2023-02-11T08:05:51;37.22;;;21.88;;
42000;SDS011;27689;48.390;10.856;2023-02-11T08:08:35;36.13;;;22.70;;
42000;SDS011;27689;48.390;10.856;2023-02-11T08:14:08;33.53;;;22.17;;
42000;SDS011;27689;48.390;10.856;2023-02-11T08:19:37;31.73;;;21.15;;
42000;SDS011;27689;48.390;10.856;2023-02-11T08:22:22;32.63;;;21.35;;
42000;SDS011;27689;48.390;10.856;2023-02-11T08:25:06;34.17;;;21.55;;
42000;SDS011;27689;48.390;10.856;2023-02-11T08:27:50;34.58;;;21.90;;
42000;SDS011;27689;48.390;10.856;2023-02-11T08:30:34;34.40;;;22.35;;
42000;SDS011;27689;48.390;10.856;2023-02-11T08:33:18;36.60;;;23.42;;
42000;SDS011;27689;48.390;10.856;2023-02-11T08:36:13;37.00;;;23.08;;
42000;SDS011;27689;48.390;10.856;2023-02-11T08:38:59;33.33;;;20.92;;
42000;SDS011;27689;48.390;10.856;2023-02-11T08:41:50;34.45;;;21.48;;
42000;SDS011;27689;48.390;10.856;2023-02-11T08:44:36;30.50;;;20.20;;
42000;SDS011;27689;48.390;10.856;2023-02-11T08:47:20;35.88;;;22.60;;
42000;SDS011;27689;48.390;10.856;2023-02-11T08:50:04;33.67;;;21.60;;
42000;SDS011;27689;48.390;10.856;2023-02-11T08:55:34;31.65;;;19.20;;
42000;SDS011;27689;48.390;10.856;2023-02-11T08:58:18;34.00;;;21.50;;
42000;SDS011;27689;48.390;10.856;2023-02-11T09:01:14;32.15;;;20.88;;
42000;SDS011;27689;48.390;10.856;2023-02-11T09:04:00;27.85;;;18.88;;
42000;SDS011;27689;48.390;10.856;2023-02-11T09:06:44;30.10;;;19.42;;
42000;SDS011;27689;48.390;10.856;2023-02-11T09:12:12;33.38;;;21.38;;
42000;SDS011;27689;48.390;10.856;2023-02-11T09:14:56;35.50;;;22.73;;
42000;SDS011;27689;48.390;10.856;2023-02-11T09:17:41;37.55;;;21.08;;
42000;SDS011;27689;48.390;10.856;2023-02-11T09:20:25;32.72;;;20.83;;
42000;SDS011;27689;48.390;10.856;2023-02-11T09:23:10;33.60;;;21.05;;
42000;SDS011;27689;48.390;10.856;2023-02-11T09:25:55;31.90;;;19.40;;
42000;SDS011;27689;48.390;10.856;2023-02-11T09:28:39;30.65;;;20.10;;
42000;SDS011;27689;48.390;10.856;2023-02-11T09:31:24;33.53;;;19.58;;
42000;SDS011;27689;48.390;10.856;2023-02-11T09:34:10;31.38;;;20.08;;
42000;SDS011;27689;48.390;10.856;2023-02-11T09:36:55;33.75;;;20.33;;
42000;SDS011;27689;48.390;10.856;2023-02-11T09:39:39;30.50;;;19.35;;
42000;SDS011;27689;48.390;10.856;2023-02-11T09:45:10;32.55;;;20.33;;
42000;SDS011;27689;48.390;10.856;2023-02-11T09:48:35;30.45;;;19.98;;
42000;SDS011;27689;48.390;10.856;2023-02-11T09:51:14;31.88;;;20.05;;
42000;SDS011;27689;48.390;10.856;2023-02-11T09:54:04;33.47;;;21.02;;
42000;SDS011;27689;48.390;10.856;2023-02-11T09:56:56;34.00;;;21.90;;
42000;SDS011;27689;48.390;10.856;2023-02-11T09:59:40;36.20;;;21.85;;
42000;SDS011;27689;48.390;10.856;2023-02-11T10:02:41;35.00;;;21.45;;
42000;SDS011;27689;48.390;10.856;2023-02-11T10:05:44;34.08;;;21.60;;
42000;SDS011;27689;48.390;10.856;2023-02-11T10:12:14;32.70;;;22.08;;
42000;SDS011;27689;48.390;10.856;2023-02-11T10:15:40;37.55;;;21.77;;
42000;SDS011;27689;48.390;10.856;2023-02-11T10:19:18;37.10;;;21.33;;
42000;SDS011;27689;48.390;10.856;2023-02-11T10:22:01;29.60;;;20.63;;
42000;SDS011;27689;48.390;10.856;2023-02-11T10:24:55;33.03;;;19.73;;
42000;SDS011;27689;48.390;10.856;2023-02-11T10:27:42;35.03;;;22.33;;
42000;SDS011;27689;48.390;10.856;2023-02-11T10:30:36;30.25;;;20.67;;
42000;SDS011;27689;48.390;10.856;2023-02-11T10:36:10;37.92;;;23.85;;
42000;SDS011;27689;48.390;10.856;2023-02-11T10:38:57;33.22;;;21.55;;
42000;SDS011;27689;48.390;10.856;2023-02-11T10:41:47;34.53;;;22.38;;
42000;SDS011;27689;48.390;10.856;2023-02-11T10:44:46;34.35;;;21.48;;
42000;SDS011;27689;48.390;10.856;2023-02-11T10:47:39;32.65;;;21.88;;
42000;SDS011;27689;48.390;10.856;2023-02-11T10:53:14;34.65;;;22.08;;
42000;SDS011;27689;48.390;10.856;2023-02-11T10:56:02;35.08;;;22.23;;
42000;SDS011;27689;48.390;10.856;2023-02-11T10:58:58;34.60;;;21.80;;
42000;SDS011;27689;48.390;10.856;2023-02-11T11:01:47;29.60;;;20.95;;
42000;SDS011;27689;48.390;10.856;2023-02-11T11:07:24;30.20;;;19.40;;
42000;SDS011;27689;48.390;10.856;2023-02-11T11:11:00;31.55;;;20.45;;
42000;SDS011;27689;48.390;10.856;2023-02-11T11:13:30;30.88;;;20.13;;
42000;SDS011;27689;48.390;10.856;2023-02-11T11:16:17;29.35;;;19.17;;
42000;SDS011;27689;48.390;10.856;2023-02-11T11:19:13;26.70;;;17.48;;
42000;SDS011;27689;48.390;10.856;2023-02-11T11:22:09;27.77;;;17.73;;
42000;SDS011;27689;48.390;10.856;2023-02-11T11:25:05;25.42;;;17.05;;
42000;SDS011;27689;48.390;10.856;2023-02-11T11:28:08;23.88;;;16.52;;
42000;SDS011;27689;48.390;10.856;2023-02-11T11:31:04;23.65;;;14.88;;
42000;SDS011;27689;48.390;10.856;2023-02-11T11:33:54;21.25;;;13.88;;
42000;SDS011;27689;48.390;10.856;2023-02-11T11:36:41;18.25;;;12.98;;
42000;SDS011;27689;48.390;10.856;2023-02-11T11:39:26;19.65;;;13.85;;
42000;SDS011;27689;48.390;10.856;2023-02-11T11:42:24;19.52;;;13.45;;
42000;SDS011;27689;48.390;10.856;2023-02-11T11:48:18;21.45;;;14.10;;
42000;SDS011;27689;48.390;10.856;2023-02-11T11:51:10;20.00;;;14.48;;
42000;SDS011;27689;48.390;10.856;2023-02-11T11:54:02;20.33;;;14.30;;
42000;SDS011;27689;48.390;10.856;2023-02-11T11:57:01;19.20;;;13.90;;
42000;SDS011;27689;48.390;10.856;2023-02-11T11:59:54;31.52;;;18.48;;
42000;SDS011;27689;48.390;10.856;2023-02-11T12:06:03;22.02;;;14.43;;
42000;SDS011;27689;48.390;10.856;2023-02-11T12:08:59;22.63;;;14.35;;
42000;SDS011;27689;48.390;10.856;2023-02-11T12:18:45;22.90;;;15.18;;
42000;SDS011;27689;48.390;10.856;2023-02-11T12:22:00;19.42;;;14.45;;
42000;SDS011;27689;48.390;10.856;2023-02-11T12:27:46;16.13;;;11.60;;
42000;SDS011;27689;48.390;10.856;2023-02-11T12:33:31;21.20;;;10.82;;
42000;SDS011;27689;48.390;10.856;2023-02-11T12:42:46;17.50;;;10.85;;
42000;SDS011;27689;48.390;10.856;2023-02-11T12:55:10;18.17;;;11.90;;
42000;SDS011;27689;48.390;10.856;2023-02-11T12:57:57;15.35;;;11.43;;
42000;SDS011;27689;48.390;10.856;2023-02-11T13:00:50;16.92;;;12.30;;
42000;SDS011;27689;48.390;10.856;2023-02-11T13:03:39;18.45;;;13.07;;
42000;SDS011;27689;48.390;10.856;2023-02-11T13:06:33;16.95;;;11.05;;
42000;SDS011;27689;48.390;10.856;2023-02-11T13:09:26;13.63;;;10.07;;
42000;SDS011;27689;48.390;10.856;2023-02-11T13:12:18;15.45;;;11.10;;
42000;SDS011;27689;48.390;10.856;2023-02-11T13:15:21;12.82;;;10.35;;
42000;SDS011;27689;48.390;10.856;2023-02-11T13:21:21;12.07;;;9.45;;
42000;SDS011;27689;48.390;10.856;2023-02-11T13:30:30;14.57;;;10.45;;
42000;SDS011;27689;48.390;10.856;2023-02-11T13:33:18;13.38;;;10.00;;
42000;SDS011;27689;48.390;10.856;2023-02-11T13:36:14;13.15;;;10.38;;
42000;SDS011;27689;48.390;10.856;2023-02-11T13:39:00;16.85;;;11.15;;
42000;SDS011;27689;48.390;10.856;2023-02-11T13:41:47;17.85;;;11.43;;
42000;SDS011;27689;48.390;10.856;2023-02-11T13:47:24;13.65;;;10.95;;
42000;SDS011;27689;48.390;10.856;2023-02-11T13:50:20;14.70;;;10.50;;
42000;SDS011;27689;48.390;10.856;2023-02-11T13:53:07;18.02;;;11.38;;
42000;SDS011;27689;48.390;10.856;2023-02-11T13:55:52;16.10;;;11.50;;
42000;SDS011;27689;48.390;10.856;2023-02-11T13:58:48;14.70;;;11.77;;
42000;SDS011;27689;48.390;10.856;2023-02-11T14:01:40;16.27;;;12.10;;
42000;SDS011;27689;48.390;10.856;2023-02-11T14:05:00;15.15;;;11.40;;
42000;SDS011;27689;48.390;10.856;2023-02-11T14:14:25;15.43;;;10.80;;
42000;SDS011;27689;48.390;10.856;2023-02-11T14:19:54;15.38;;;11.93;;
42000;SDS011;27689;48.390;10.856;2023-02-11T14:22:46;15.35;;;12.20;;
42000;SDS011;27689;48.390;10.856;2023-02-11T14:25:33;15.63;;;10.95;;
42000;SDS011;27689;48.390;10.856;2023-02-11T14:28:20;19.10;;;13.03;;
42000;SDS011;27689;48.390;10.856;2023-02-11T14:31:09;15.65;;;12.13;;
42000;SDS011;27689;48.390;10.856;2023-02-11T14:34:03;16.08;;;12.68;;
42000;SDS011;27689;48.390;10.856;2023-02-11T14:37:03;16.53;;;12.30;;
42000;SDS011;27689;48.390;10.856;2023-02-11T14:39:54;18.08;;;12.13;;
42000;SDS011;27689;48.390;10.856;2023-02-11T14:43:16;16.33;;;11.95;;
42000;SDS011;27689;48.390;10.856;2023-02-11T14:46:03;16.25;;;12.18;;
42000;SDS011;27689;48.390;10.856;2023-02-11T14:48:49;18.25;;;13.57;;
42000;SDS011;27689;48.390;10.856;2023-02-11T14:51:37;19.27;;;13.10;;
42000;SDS011;27689;48.390;10.856;2023-02-11T14:54:24;22.05;;;13.77;;
42000;SDS011;27689;48.390;10.856;2023-02-11T14:57:12;20.02;;;14.05;;
42000;SDS011;27689;48.390;10.856;2023-02-11T14:59:59;17.67;;;12.68;;
42000;SDS011;27689;48.390;10.856;2023-02-11T15:02:46;17.27;;;12.60;;
42000;SDS011;27689;48.390;10.856;2023-02-11T15:08:14;15.77;;;11.98;;
42000;SDS011;27689;48.390;10.856;2023-02-11T15:10:59;18.03;;;12.73;;
42000;SDS011;27689;48.390;10.856;2023-02-11T15:13:45;16.33;;;12.70;;
42000;SDS011;27689;48.390;10.856;2023-02-11T15:16:32;17.27;;;13.40;;
42000;SDS011;27689;48.390;10.856;2023-02-11T15:19:19;19.73;;;14.35;;
42000;SDS011;27689;48.390;10.856;2023-02-11T15:22:14;20.50;;;13.82;;
42000;SDS011;27689;48.390;10.856;2023-02-11T15:25:11;18.88;;;12.93;;
42000;SDS011;27689;48.390;10.856;2023-02-11T15:27:58;17.90;;;13.60;;
42000;SDS011;27689;48.390;10.856;2023-02-11T15:30:43;19.70;;;14.77;;
42000;SDS011;27689;48.390;10.856;2023-02-11T15:33:27;33.33;;;21.55;;
42000;SDS011;27689;48.390;10.856;2023-02-11T15:36:14;27.13;;;17.70;;
42000;SDS011;27689;48.390;10.856;2023-02-11T15:39:16;17.08;;;11.05;;
42000;SDS011;27689;48.390;10.856;2023-02-11T15:42:16;15.32;;;11.02;;
42000;SDS011;27689;48.390;10.856;2023-02-11T15:48:08;15.18;;;10.98;;
42000;SDS011;27689;48.390;10.856;2023-02-11T15:51:00;15.40;;;11.20;;
42000;SDS011;27689;48.390;10.856;2023-02-11T15:53:51;17.40;;;12.88;;
42000;SDS011;27689;48.390;10.856;2023-02-11T15:56:39;19.83;;;13.15;;
42000;SDS011;27689;48.390;10.856;2023-02-11T15:59:27;17.45;;;13.00;;
42000;SDS011;27689;48.390;10.856;2023-02-11T16:02:16;18.95;;;13.35;;
42000;SDS011;27689;48.390;10.856;2023-02-11T16:05:05;18.90;;;12.90;;
42000;SDS011;27689;48.390;10.856;2023-02-11T16:07:50;17.98;;;12.32;;
42000;SDS011;27689;48.390;10.856;2023-02-11T16:10:34;18.33;;;13.40;;
42000;SDS011;27689;48.390;10.856;2023-02-11T16:13:18;20.03;;;14.23;;
42000;SDS011;27689;48.390;10.856;2023-02-11T16:16:03;21.30;;;14.32;;
42000;SDS011;27689;48.390;10.856;2023-02-11T16:19:00;20.83;;;14.77;;
42000;SDS011;27689;48.390;10.856;2023-02-11T16:21:45;22.90;;;14.85;;
42000;SDS011;27689;48.390;10.856;2023-02-11T16:24:32;20.88;;;15.18;;
42000;SDS011;27689;48.390;10.856;2023-02-11T16:27:19;25.33;;;17.10;;
42000;SDS011;27689;48.390;10.856;2023-02-11T16:33:25;21.23;;;14.68;;
42000;SDS011;27689;48.390;10.856;2023-02-11T16:36:13;20.90;;;15.55;;
42000;SDS011;27689;48.390;10.856;2023-02-11T16:39:00;27.52;;;18.42;;
42000;SDS011;27689;48.390;10.856;2023-02-11T16:41:43;22.20;;;15.90;;
42000;SDS011;27689;48.390;10.856;2023-02-11T16:44:28;26.88;;;18.92;;
42000;SDS011;27689;48.390;10.856;2023-02-11T16:47:19;46.03;;;30.90;;
42000;SDS011;27689;48.390;10.856;2023-02-11T16:50:07;29.55;;;20.67;;
42000;SDS011;27689;48.390;10.856;2023-02-11T16:52:53;28.95;;;19.60;;
42000;SDS011;27689;48.390;10.856;2023-02-11T16:55:37;36.38;;;25.63;;
42000;SDS011;27689;48.390;10.856;2023-02-11T16:58:21;31.58;;;21.70;;
42000;SDS011;27689;48.390;10.856;2023-02-11T17:01:05;29.45;;;19.80;;
42000;SDS011;27689;48.390;10.856;2023-02-11T17:03:49;27.83;;;20.98;;
42000;SDS011;27689;48.390;10.856;2023-02-11T17:06:33;28.08;;;20.88;;
42000;SDS011;27689;48.390;10.856;2023-02-11T17:09:25;84.73;;;53.13;;
42000;SDS011;27689;48.390;10.856;2023-02-11T17:12:10;41.33;;;26.70;;
42000;SDS011;27689;48.390;10.856;2023-02-11T17:14:54;26.87;;;17.83;;
42000;SDS011;27689;48.390;10.856;2023-02-11T17:17:38;22.27;;;16.80;;
42000;SDS011;27689;48.390;10.856;2023-02-11T17:20:22;25.02;;;19.20;;
42000;SDS011;27689;48.390;10.856;2023-02-11T17:23:07;26.17;;;21.65;;
42000;SDS011;27689;48.390;10.856;2023-02-11T17:25:55;27.00;;;17.13;;
42000;SDS011;27689;48.390;10.856;2023-02-11T17:28:39;20.58;;;14.10;;
42000;SDS011;27689;48.390;10.856;2023-02-11T17:31:23;23.73;;;17.00;;
42000;SDS011;27689;48.390;10.856;2023-02-11T17:34:08;23.20;;;17.58;;
42000;SDS011;27689;48.390;10.856;2023-02-11T17:36:52;24.75;;;17.45;;
42000;SDS011;27689;48.390;10.856;2023-02-11T17:39:37;24.80;;;18.25;;
42000;SDS011;27689;48.390;10.856;2023-02-11T17:42:22;25.88;;;18.13;;
42000;SDS011;27689;48.390;10.856;2023-02-11T17:45:06;26.67;;;18.08;;
42000;SDS011;27689;48.390;10.856;2023-02-11T17:50:35;30.77;;;22.08;;
42000;SDS011;27689;48.390;10.856;2023-02-11T17:53:19;28.80;;;19.70;;
42000;SDS011;27689;48.390;10.856;2023-02-11T17:56:03;24.65;;;17.55;;
42000;SDS011;27689;48.390;10.856;2023-02-11T17:58:50;27.38;;;18.15;;
42000;SDS011;27689;48.390;10.856;2023-02-11T18:01:36;24.00;;;17.23;;
42000;SDS011;27689;48.390;10.856;2023-02-11T18:04:21;27.58;;;18.20;;
42000;SDS011;27689;48.390;10.856;2023-02-11T18:07:05;22.23;;;16.17;;
42000;SDS011;27689;48.390;10.856;2023-02-11T18:09:50;21.77;;;15.90;;
42000;SDS011;27689;48.390;10.856;2023-02-11T18:12:33;26.13;;;17.80;;
42000;SDS011;27689;48.390;10.856;2023-02-11T18:15:17;25.47;;;17.60;;
42000;SDS011;27689;48.390;10.856;2023-02-11T18:18:01;27.17;;;18.38;;
42000;SDS011;27689;48.390;10.856;2023-02-11T18:20:54;24.90;;;18.48;;
42000;SDS011;27689;48.390;10.856;2023-02-11T18:23:39;26.05;;;18.33;;
42000;SDS011;27689;48.390;10.856;2023-02-11T18:26:23;24.53;;;17.23;;
42000;SDS011;27689;48.390;10.856;2023-02-11T18:29:10;26.00;;;18.00;;
42000;SDS011;27689;48.390;10.856;2023-02-11T18:31:55;26.92;;;18.60;;
42000;SDS011;27689;48.390;10.856;2023-02-11T18:34:39;30.88;;;20.63;;
42000;SDS011;27689;48.390;10.856;2023-02-11T18:37:23;25.67;;;18.00;;
42000;SDS011;27689;48.390;10.856;2023-02-11T18:40:08;25.15;;;17.40;;